createdAt,value
2018-07-09T00:02:06.811Z,18.30
2018-07-09T00:07:02.581Z,18.40
2018-07-09T00:09:30.518Z,18.40
2018-07-09T00:11:59.160Z,18.50
2018-07-09T00:14:27.237Z,18.50
2018-07-09T00:16:55.164Z,18.50
2018-07-09T00:19:23.107Z,18.40
2018-07-09T00:21:50.999Z,18.30
2018-07-09T00:26:46.735Z,18.30
2018-07-09T00:29:14.981Z,18.30
2018-07-09T00:31:42.847Z,18.20
2018-07-09T00:34:10.713Z,18.10
2018-07-09T00:36:38.609Z,18.00
2018-07-09T00:41:35.757Z,18.00
2018-07-09T00:44:03.940Z,17.90
2018-07-09T00:49:00.091Z,17.80
2018-07-09T00:53:55.846Z,17.70
2018-07-09T00:58:51.493Z,17.70
2018-07-09T01:01:19.638Z,17.80
2018-07-09T01:08:43.434Z,17.50
2018-07-09T01:13:45.946Z,17.30
2018-07-09T01:16:13.886Z,17.30
2018-07-09T01:18:42.312Z,17.30
2018-07-09T01:21:12.401Z,17.30
2018-07-09T01:26:08.671Z,17.20
2018-07-09T01:28:38.259Z,17.10
2018-07-09T01:31:06.256Z,17.10
2018-07-09T01:33:34.176Z,17.10
2018-07-09T01:36:02.141Z,17.10
2018-07-09T01:38:30.049Z,17.10
2018-07-09T01:43:25.728Z,17.20
2018-07-09T01:45:53.813Z,17.20
2018-07-09T01:48:21.685Z,17.10
2018-07-09T01:53:17.355Z,17.10
2018-07-09T01:55:45.244Z,17.00
2018-07-09T01:58:13.120Z,17.00
2018-07-09T02:00:40.986Z,16.90
2018-07-09T02:03:09.315Z,16.80
2018-07-09T02:05:37.213Z,16.80
2018-07-09T02:08:05.755Z,16.80
2018-07-09T02:13:01.540Z,16.70
2018-07-09T02:15:29.462Z,16.80
2018-07-09T02:22:53.097Z,16.70
2018-07-09T02:25:21.780Z,16.70
2018-07-09T02:27:49.698Z,16.70
2018-07-09T02:30:17.590Z,16.60
2018-07-09T02:32:45.485Z,16.70
2018-07-09T02:35:13.401Z,16.60
2018-07-09T02:40:09.313Z,16.50
2018-07-09T02:42:37.144Z,16.50
2018-07-09T02:47:33.089Z,16.40
2018-07-09T02:50:00.977Z,16.20
2018-07-09T02:52:28.890Z,16.10
2018-07-09T02:54:57.183Z,16.00
2018-07-09T02:57:25.117Z,15.90
2018-07-09T02:59:53.038Z,16.00
2018-07-09T03:02:20.947Z,15.90
2018-07-09T03:04:48.918Z,15.80
2018-07-09T03:07:16.804Z,15.80
2018-07-09T03:12:12.476Z,15.70
2018-07-09T03:14:40.366Z,15.60
2018-07-09T03:17:08.496Z,15.70
2018-07-09T03:19:36.569Z,15.70
2018-07-09T03:24:32.343Z,15.70
2018-07-09T03:27:00.747Z,15.60
2018-07-09T03:31:56.439Z,15.50
2018-07-09T03:34:24.686Z,15.40
2018-07-09T03:36:52.578Z,15.50
2018-07-09T03:39:20.512Z,15.50
2018-07-09T03:41:48.418Z,15.40
2018-07-09T03:44:16.364Z,15.40
2018-07-09T03:46:44.402Z,15.30
2018-07-09T03:49:12.485Z,15.40
2018-07-09T03:51:40.844Z,15.40
2018-07-09T03:54:08.723Z,15.40
2018-07-09T03:56:36.666Z,15.40
2018-07-09T03:59:04.975Z,15.40
2018-07-09T04:01:32.917Z,15.40
2018-07-09T04:04:00.822Z,15.40
2018-07-09T04:08:56.465Z,15.60
2018-07-09T04:13:53.019Z,15.60
2018-07-09T04:18:49.969Z,15.70
2018-07-09T04:21:17.924Z,15.80
2018-07-09T04:26:13.706Z,16.00
2018-07-09T04:28:41.596Z,16.00
2018-07-09T04:31:09.494Z,16.00
2018-07-09T04:33:37.394Z,16.10
2018-07-09T04:36:05.658Z,16.10
2018-07-09T04:43:29.133Z,16.40
2018-07-09T04:48:25.004Z,16.60
2018-07-09T04:50:52.953Z,16.70
2018-07-09T04:53:21.172Z,16.90
2018-07-09T04:55:49.971Z,17.00
2018-07-09T04:58:18.921Z,17.40
2018-07-09T05:00:46.868Z,17.60
2018-07-09T05:08:11.514Z,18.10
2018-07-09T05:10:40.018Z,18.00
2018-07-09T05:13:09.205Z,18.10
2018-07-09T05:15:37.115Z,18.20
2018-07-09T05:18:05.901Z,18.30
2018-07-09T05:20:33.849Z,18.50
2018-07-09T05:23:02.970Z,18.60
2018-07-09T05:25:31.106Z,18.70
2018-07-09T05:27:59.571Z,18.90
2018-07-09T05:30:29.299Z,19.00
2018-07-09T05:35:25.407Z,19.10
2018-07-09T05:42:49.431Z,19.30
2018-07-09T05:47:45.584Z,19.40
2018-07-09T05:50:13.664Z,19.50
2018-07-09T05:52:42.444Z,19.60
2018-07-09T05:55:10.451Z,19.60
2018-07-09T05:57:38.779Z,19.70
2018-07-09T06:02:34.620Z,20.00
2018-07-09T06:05:02.681Z,20.00
2018-07-09T06:07:30.692Z,20.20
2018-07-09T06:09:59.238Z,20.20
2018-07-09T06:14:54.933Z,20.30
2018-07-09T06:17:23.259Z,20.50
2018-07-09T06:19:51.167Z,20.90
2018-07-09T06:22:19.105Z,21.30
2018-07-09T06:24:47.107Z,21.50
2018-07-09T06:27:15.088Z,21.90
2018-07-09T06:29:42.988Z,22.00
2018-07-09T06:32:10.932Z,22.20
2018-07-09T06:39:34.459Z,22.70
2018-07-09T06:44:31.417Z,23.00
2018-07-09T06:46:59.406Z,23.00
2018-07-09T06:49:27.393Z,23.10
2018-07-09T06:51:55.415Z,23.40
2018-07-09T06:56:51.694Z,23.20
2018-07-09T06:59:19.750Z,22.90
2018-07-09T07:01:47.691Z,22.70
2018-07-09T07:04:15.599Z,22.60
2018-07-09T07:06:44.113Z,22.50
2018-07-09T07:09:12.169Z,22.30
2018-07-09T07:11:40.840Z,22.20
2018-07-09T07:14:09.478Z,22.20
2018-07-09T07:19:06.234Z,22.40
2018-07-09T07:21:34.359Z,22.50
2018-07-09T07:24:02.294Z,22.50
2018-07-09T07:26:30.602Z,22.70
2018-07-09T07:28:58.589Z,22.80
2018-07-09T07:31:26.800Z,22.80
2018-07-09T07:33:54.934Z,22.90
2018-07-09T07:36:23.505Z,23.00
2018-07-09T07:38:51.567Z,23.10
2018-07-09T07:41:19.482Z,23.00
2018-07-09T07:43:47.618Z,22.90
2018-07-09T07:46:15.876Z,22.70
2018-07-09T07:51:11.727Z,22.60
2018-07-09T07:53:39.638Z,22.60
2018-07-09T07:56:09.019Z,22.70
2018-07-09T07:58:38.386Z,22.90
2018-07-09T08:01:08.529Z,23.30
2018-07-09T08:03:36.884Z,23.60
2018-07-09T08:06:07.040Z,23.70
2018-07-09T08:08:35.130Z,24.00
2018-07-09T08:11:10.912Z,24.10
2018-07-09T08:13:31.424Z,24.40
2018-07-09T08:18:27.212Z,24.60
2018-07-09T08:20:55.695Z,24.50
2018-07-09T08:23:23.688Z,24.30
2018-07-09T08:25:51.673Z,24.20
2018-07-09T08:28:19.616Z,24.10
2018-07-09T08:30:47.508Z,24.00
2018-07-09T08:35:43.275Z,24.00
2018-07-09T08:38:11.176Z,24.00
2018-07-09T08:40:39.173Z,24.20
2018-07-09T08:43:07.363Z,24.40
2018-07-09T08:50:30.835Z,24.70
2018-07-09T08:52:59.450Z,24.90
2018-07-09T08:57:55.221Z,24.50
2018-07-09T09:00:23.161Z,24.10
2018-07-09T09:02:51.623Z,23.90
2018-07-09T09:05:19.580Z,23.80
2018-07-09T09:07:47.677Z,23.70
2018-07-09T09:10:15.874Z,23.90
2018-07-09T09:12:44.020Z,24.10
2018-07-09T09:15:12.029Z,24.10
2018-07-09T09:17:39.998Z,24.00
2018-07-09T09:20:08.347Z,24.00
2018-07-09T09:25:04.139Z,24.00
2018-07-09T09:27:32.072Z,24.10
2018-07-09T09:30:00.844Z,24.10
2018-07-09T09:32:28.874Z,24.10
2018-07-09T09:34:56.797Z,24.10
2018-07-09T09:37:25.444Z,24.20
2018-07-09T09:39:53.529Z,24.20
2018-07-09T09:44:49.215Z,24.30
2018-07-09T09:54:40.619Z,25.10
2018-07-09T09:57:08.551Z,25.30
2018-07-09T09:59:36.492Z,25.30
2018-07-09T10:02:04.398Z,25.50
2018-07-09T10:04:32.907Z,25.70
2018-07-09T10:07:01.211Z,25.60
2018-07-09T10:09:29.133Z,25.70
2018-07-09T10:11:57.056Z,25.70
2018-07-09T10:14:25.599Z,25.60
2018-07-09T10:19:21.569Z,25.10
2018-07-09T10:21:49.524Z,25.00
2018-07-09T10:26:45.242Z,24.70
2018-07-09T10:29:13.229Z,24.60
2018-07-09T10:34:10.421Z,24.70
2018-07-09T10:36:38.925Z,24.90
2018-07-09T10:39:06.897Z,25.00
2018-07-09T10:41:34.797Z,25.20
2018-07-09T10:46:30.555Z,25.50
2018-07-09T10:51:26.367Z,25.30
2018-07-09T10:53:55.123Z,25.30
2018-07-09T10:56:23.076Z,25.00
2018-07-09T10:58:52.138Z,24.80
2018-07-09T11:03:48.534Z,24.30
2018-07-09T11:06:16.570Z,23.90
2018-07-09T11:08:44.457Z,23.60
2018-07-09T11:11:12.475Z,23.50
2018-07-09T11:13:40.437Z,23.30
2018-07-09T11:16:08.592Z,23.20
2018-07-09T11:18:36.461Z,23.20
2018-07-09T11:21:05.339Z,23.30
2018-07-09T11:23:33.984Z,23.40
2018-07-09T11:26:01.965Z,23.50
2018-07-09T11:28:29.900Z,23.60
2018-07-09T11:30:57.868Z,23.50
2018-07-09T11:33:25.959Z,23.60
2018-07-09T11:38:21.782Z,24.10
2018-07-09T11:40:50.211Z,24.40
2018-07-09T11:43:18.159Z,24.70
2018-07-09T11:45:46.438Z,24.60
2018-07-09T11:50:42.687Z,25.10
2018-07-09T11:53:10.661Z,25.20
2018-07-09T11:55:39.546Z,25.60
2018-07-09T11:58:08.278Z,25.90
2018-07-09T12:00:37.171Z,26.20
2018-07-09T12:03:05.713Z,26.50
2018-07-09T12:05:33.893Z,26.50
2018-07-09T12:08:03.139Z,26.60
2018-07-09T12:10:32.174Z,26.60
2018-07-09T12:13:00.083Z,26.80
2018-07-09T12:15:28.044Z,26.90
2018-07-09T12:17:56.193Z,26.70
2018-07-09T12:20:25.165Z,26.70
2018-07-09T12:22:53.146Z,27.00
2018-07-09T12:25:21.215Z,27.40
2018-07-09T12:27:49.156Z,27.60
2018-07-09T12:30:17.193Z,27.60
2018-07-09T12:32:45.114Z,27.30
2018-07-09T12:37:40.858Z,26.90
2018-07-09T12:42:37.017Z,26.60
2018-07-09T12:45:05.224Z,26.50
2018-07-09T12:47:33.175Z,26.40
2018-07-09T12:50:02.113Z,25.80
2018-07-09T12:52:31.167Z,24.20
2018-07-09T12:54:59.319Z,22.60
2018-07-09T12:57:27.246Z,21.80
2018-07-09T12:59:55.132Z,21.40
2018-07-09T13:02:23.134Z,21.20
2018-07-09T13:04:51.712Z,20.90
2018-07-09T13:07:20.284Z,20.90
2018-07-09T13:09:48.733Z,20.80
2018-07-09T13:12:33.483Z,20.90
2018-07-09T13:15:02.183Z,20.90
2018-07-09T13:17:30.098Z,20.80
2018-07-09T13:19:59.611Z,20.70
2018-07-09T13:22:27.655Z,20.70
2018-07-09T13:24:55.549Z,20.80
2018-07-09T13:27:23.494Z,21.00
2018-07-09T13:29:51.571Z,21.10
2018-07-09T13:32:19.624Z,21.30
2018-07-09T13:39:43.145Z,21.60
2018-07-09T13:42:11.456Z,21.70
2018-07-09T13:44:39.611Z,21.80
2018-07-09T13:47:07.545Z,21.80
2018-07-09T13:49:35.850Z,21.80
2018-07-09T13:52:03.805Z,21.80
2018-07-09T13:54:31.852Z,22.00
2018-07-09T13:56:59.824Z,21.90
2018-07-09T14:01:55.934Z,22.10
2018-07-09T14:04:23.836Z,22.10
2018-07-09T14:09:19.530Z,22.30
2018-07-09T14:11:47.429Z,22.30
2018-07-09T14:16:43.270Z,22.50
2018-07-09T14:21:46.742Z,22.70
2018-07-09T14:24:15.309Z,23.00
2018-07-09T14:26:43.990Z,23.40
2018-07-09T14:29:12.668Z,23.80
2018-07-09T14:31:40.731Z,24.00
2018-07-09T14:34:09.297Z,24.20
2018-07-09T14:41:35.344Z,24.30
2018-07-09T14:44:03.482Z,24.50
2018-07-09T14:46:32.150Z,24.40
2018-07-09T14:49:00.940Z,24.50
2018-07-09T14:51:29.887Z,24.50
2018-07-09T14:53:58.078Z,24.40
2018-07-09T14:56:26.082Z,24.30
2018-07-09T14:58:54.736Z,24.30
2018-07-09T15:03:50.593Z,24.10
2018-07-09T15:06:19.973Z,24.00
2018-07-09T15:08:48.004Z,23.80
2018-07-09T15:11:16.533Z,23.80
2018-07-09T15:13:44.601Z,23.80
2018-07-09T15:16:13.138Z,23.80
2018-07-09T15:18:41.835Z,23.70
2018-07-09T15:23:38.232Z,23.60
2018-07-09T15:26:06.187Z,23.50
2018-07-09T15:31:02.232Z,23.40
2018-07-09T15:35:57.958Z,23.30
2018-07-09T15:38:26.477Z,23.40
2018-07-09T15:40:54.511Z,23.40
2018-07-09T15:45:56.805Z,23.40
2018-07-09T15:48:24.868Z,23.50
2018-07-09T15:53:20.621Z,23.50
2018-07-09T15:58:32.869Z,23.50
2018-07-09T16:01:00.897Z,23.40
2018-07-09T16:03:28.955Z,23.40
2018-07-09T16:05:56.986Z,23.40
2018-07-09T16:08:25.041Z,23.40
2018-07-09T16:10:52.979Z,23.30
2018-07-09T16:13:20.909Z,23.20
2018-07-09T16:15:48.802Z,23.30
2018-07-09T16:18:17.374Z,23.30
2018-07-09T16:20:45.289Z,23.40
2018-07-09T16:23:13.195Z,23.50
2018-07-09T16:25:41.840Z,23.50
2018-07-09T16:28:09.730Z,23.60
2018-07-09T16:30:37.766Z,23.70
2018-07-09T16:33:06.123Z,23.70
2018-07-09T16:35:34.592Z,23.70
2018-07-09T16:38:03.094Z,23.80
2018-07-09T16:40:31.039Z,23.90
2018-07-09T16:42:59.137Z,23.80
2018-07-09T16:45:30.058Z,23.80
2018-07-09T16:53:03.778Z,23.80
2018-07-09T16:55:39.739Z,23.80
2018-07-09T16:58:13.330Z,23.70
2018-07-09T17:00:41.511Z,23.60
2018-07-09T17:03:10.234Z,23.60
2018-07-09T17:05:38.610Z,23.50
2018-07-09T17:08:07.405Z,23.60
2018-07-09T17:10:36.100Z,23.60
2018-07-09T17:15:32.031Z,23.60
2018-07-09T17:20:27.786Z,23.80
2018-07-09T17:22:55.850Z,23.80
2018-07-09T17:25:23.768Z,23.70
2018-07-09T17:27:51.704Z,23.60
2018-07-09T17:30:19.851Z,23.50
2018-07-09T17:32:48.003Z,23.30
2018-07-09T17:35:15.882Z,23.20
2018-07-09T17:37:44.619Z,23.10
2018-07-09T17:42:40.296Z,23.10
2018-07-09T17:47:36.853Z,23.10
2018-07-09T17:50:05.198Z,23.00
2018-07-09T17:52:33.208Z,23.00
2018-07-09T17:55:01.129Z,22.90
2018-07-09T17:57:29.067Z,22.90
2018-07-09T17:59:56.974Z,22.90
2018-07-09T18:02:24.916Z,22.80
2018-07-09T18:04:53.055Z,22.80
2018-07-09T18:09:48.876Z,22.70
2018-07-09T18:12:16.799Z,22.60
2018-07-09T18:14:44.898Z,22.50
2018-07-09T18:17:12.785Z,22.50
2018-07-09T18:22:08.482Z,22.30
2018-07-09T18:24:36.656Z,22.40
2018-07-09T18:27:04.651Z,22.40
2018-07-09T18:29:32.876Z,22.40
2018-07-09T18:32:02.012Z,22.30
2018-07-09T18:34:29.923Z,22.30
2018-07-09T18:39:25.711Z,22.20
2018-07-09T18:41:53.650Z,22.10
2018-07-09T18:44:23.359Z,22.10
2018-07-09T18:46:51.307Z,22.00
2018-07-09T18:49:19.249Z,22.00
2018-07-09T18:54:16.649Z,21.90
2018-07-09T18:56:44.716Z,21.90
2018-07-09T18:59:12.685Z,21.80
2018-07-09T19:04:09.737Z,21.70
2018-07-09T19:06:52.991Z,21.70
2018-07-09T19:09:22.891Z,21.60
2018-07-09T19:11:52.417Z,21.60
2018-07-09T19:14:23.357Z,21.50
2018-07-09T19:18:08.748Z,21.50
2018-07-09T19:21:18.979Z,21.50
2018-07-09T19:23:46.519Z,21.20
2018-07-09T19:26:13.698Z,21.10
2018-07-09T19:28:40.433Z,21.10
2018-07-09T19:31:07.231Z,21.10
2018-07-09T19:33:35.170Z,21.10
2018-07-09T19:36:02.925Z,21.10
2018-07-09T19:38:29.747Z,21.00
2018-07-09T19:45:51.739Z,20.90
2018-07-09T19:50:46.212Z,20.80
2018-07-09T19:58:09.219Z,20.90
2018-07-09T20:00:36.662Z,20.80
2018-07-09T20:03:04.118Z,20.70
2018-07-09T20:05:31.064Z,20.70
2018-07-09T20:07:58.528Z,20.70
2018-07-09T20:10:31.046Z,20.70
2018-07-09T20:14:00.966Z,20.60
2018-07-09T20:16:33.362Z,20.60
2018-07-09T20:19:00.170Z,20.40
2018-07-09T20:21:27.383Z,20.20
2018-07-09T20:23:54.314Z,20.20
2018-07-09T20:28:48.724Z,20.10
2018-07-09T20:33:43.286Z,20.10
2018-07-09T20:36:10.894Z,20.10
2018-07-09T20:41:05.055Z,20.10
2018-07-09T20:43:32.897Z,20.10
2018-07-09T20:45:59.657Z,20.10
2018-07-09T20:48:26.446Z,20.20
2018-07-09T20:53:20.512Z,20.20
2018-07-09T20:55:47.801Z,20.20
2018-07-09T21:00:43.057Z,20.20
2018-07-09T21:03:10.284Z,20.20
2018-07-09T21:05:37.042Z,20.20
2018-07-09T21:08:03.829Z,20.10
2018-07-09T21:10:30.596Z,20.10
2018-07-09T21:15:27.518Z,20.00
2018-07-09T21:17:54.498Z,19.90
2018-07-09T21:20:21.485Z,19.90
2018-07-09T21:22:48.897Z,19.90
2018-07-09T21:30:11.186Z,20.00
2018-07-09T21:32:37.963Z,20.00
2018-07-09T21:35:05.061Z,19.90
2018-07-09T21:39:59.030Z,20.00
2018-07-09T21:42:25.791Z,19.90
2018-07-09T21:47:19.759Z,19.60
2018-07-09T21:49:46.530Z,19.50
2018-07-09T21:54:40.477Z,19.60
2018-07-09T21:57:07.258Z,19.50
2018-07-09T21:59:33.999Z,19.30
2018-07-09T22:02:00.765Z,19.20
2018-07-09T22:04:27.506Z,19.30
2018-07-09T22:06:54.288Z,19.30
2018-07-09T22:09:21.124Z,19.30
2018-07-09T22:11:48.466Z,19.20
2018-07-09T22:14:15.583Z,19.10
2018-07-09T22:16:42.360Z,19.10
2018-07-09T22:19:09.132Z,19.00
2018-07-09T22:21:35.915Z,19.00
2018-07-09T22:24:02.687Z,19.00
2018-07-09T22:26:29.459Z,19.00
2018-07-09T22:33:52.359Z,19.00
2018-07-09T22:36:20.266Z,19.00
2018-07-09T22:38:48.192Z,18.90
2018-07-09T22:43:55.224Z,19.10
2018-07-09T22:46:23.160Z,19.20
2018-07-09T22:51:18.877Z,19.10
2018-07-09T22:53:46.837Z,19.00
2018-07-09T22:56:15.719Z,19.00
2018-07-09T22:58:43.659Z,19.00
2018-07-09T23:01:11.690Z,18.90
2018-07-09T23:06:07.923Z,18.90
2018-07-09T23:08:35.850Z,18.80
2018-07-09T23:11:21.098Z,18.80
2018-07-09T23:17:36.050Z,18.60
2018-07-09T23:20:42.274Z,18.60
2018-07-09T23:23:09.048Z,18.60
2018-07-09T23:25:35.808Z,18.50
2018-07-09T23:28:02.822Z,18.50
2018-07-09T23:30:29.546Z,18.60
2018-07-09T23:32:56.268Z,18.70
2018-07-09T23:35:22.986Z,18.70
2018-07-09T23:37:49.758Z,18.60
2018-07-09T23:40:16.503Z,18.70
2018-07-09T23:42:43.246Z,18.70
2018-07-09T23:45:10.012Z,18.70
2018-07-09T23:47:36.767Z,18.80
2018-07-09T23:50:03.528Z,18.90
2018-07-09T23:52:30.616Z,18.90
2018-07-09T23:54:57.342Z,18.80
2018-07-09T23:59:43.424Z,18.70
